TFM - Tactical Decision Aid
ID: Runway Winds: CIG/VIS Threshold:

KCLT - Charlotte/Douglas In, NC, US

Updated at: 0645 UTC 22 Oct 2021
Latest TAF at: 0534 UTC 22 Oct 2021

TAF Board

Time<<22/19Z 22/20Z 22/21Z 22/22Z 22/23Z 23/00Z 23/01Z 23/02Z 23/03Z 23/04Z 23/05Z 23/06Z 23/07Z>>
Type PRVL PRVL PRVL PRVL PRVL PRVL PRVL PRVL PRVL PRVL PRVL PRVL PRVL
VIS >6 >6 >6 >6 >6 >6 >6 >6 >6 >6 >6 >6 >6
CIG 80 80 80 -- -- -- -- -- -- -- -- -- --
Cover BKN BKN BKN SCT SCT SCT SCT SCT SCT SCT SCT FEW FEW
FltCat VFR VFR VFR VFR VFR VFR VFR VFR VFR VFR VFR VFR VFR
WX -- -- -- -- -- -- -- -- -- -- -- -- --
WDir 260 260 260 320 320 320 320 320 320 320 320 10 10
WSpd 6 6 6 5 5 5 5 5 5 5 5 3 3
WGst -- -- -- -- -- -- -- -- -- -- -- -- --

TDA Impact Legend

  None Marginal Slight Moderate High
Visibility (sm) >5 3≤X≤5 1≤X<3 0.5≤X<1 <0.5
Ceiling (100 ft) >30 10≤X≤30 4≤X<10 2≤X<4 <2
Wind Speed (kt) <15 15≤X<25 25≤X<30 ≥30
Wind Gust (kt) <15 15≤X<25 25≤X<35 ≥35
Weather No Wx Reported VCTS -TS,-FZRA TS,FZRA +TS,+FZRA
TAF
KCLT 220534Z 2206/2312 21008KT P6SM SCT035 BKN070
  TEMPO 2206/2207 5SM -SHRA BR BKN035
  FM220900 22006KT P6SM BKN015
  FM221300 24005KT P6SM BKN023
  FM221400 26006KT P6SM BKN080
  FM222200 32005KT P6SM SCT080
  FM230600 01003KT P6SM FEW150


Radar Display
Forecast Discussion